Accueil
METAR-TAF:

METAR-TAF

Aéroports :

Inukjuak, Québec, Canada

latitude: 58-28N, longitude: 078-05W, altitude: 25 m

Observation

Le bulletin a été fait il y a 29 minutes, à 06:00 UTC
Vent 3 kt de est
Température -12°C
Humidité 78%
Pression 1022 hPa
Visibilité: 14.5 km
Ciel clair

METAR: CYPH 240600Z AUTO 09003KT 9SM CLR M12/M15 A3019 RMK SLP227

Heure: 02:29 (06:29 UTC)

Prévision

Le bulletin a été fait il y a 48 minutes, à 05:41 UTC
Prévision valable du 24 à 06 UTC au 24 à 18 UTC
Vent 10 kt de est
Visibilité: 10 km
Nuages fragmentés à une hauteur de 2500 ft
Temporairement
du 24 à 06 UTC au 24 à 14 UTC
Nuages fragmentés à une hauteur de 1000 ft
A partir de 24 à 1600 UTC
Vent 12 kt de sud-est
Visibilité: 10 km
Nuages épars à une hauteur de 2500 ft

TAF: CYPH 240541Z 2406/2418 10010KT P6SM BKN025 TEMPO 2406/2414 BKN010 FM241600 14012KT P6SM SCT025 RMK FCST BASED ON AUTO OBS. NXT FCST BY 241200Z

Observations et prévisions météorologiques de plus de 4000 aéroports (messages METAR et TAF).

Les stations disponibles sont représentées par des disques jaunes et rouges sur la carte.

Passer la souris dessus pour voir le nom de la station.

Cliquer dessus pour voir les observations et prévisions météorologiques.

Pour changer de carte: cliquez sur les boutons verts avec une croix noire pour zoomer, sur le bouton vert avec un tiret pour effectuer un zoom arrière, ou sur les flèches vertes pour les cartes adjacentes.


METAR-TAF: